sensor_id;sensor_type;location;lat;lon;timestamp;pressure;altitude;pressure_sealevel;temperature;humidity
48968;BME280;46511;53.148;8.204;2024-02-21T00:00:24;101887.88;;;11.94;100.00
48968;BME280;46511;53.148;8.204;2024-02-21T00:02:56;101898.72;;;11.90;100.00
48968;BME280;46511;53.148;8.204;2024-02-21T00:05:30;101889.09;;;12.06;100.00
48968;BME280;46511;53.148;8.204;2024-02-21T00:08:01;101887.72;;;11.77;100.00
48968;BME280;46511;53.148;8.204;2024-02-21T00:10:34;101872.97;;;12.09;100.00
48968;BME280;46511;53.148;8.204;2024-02-21T00:13:06;101873.41;;;12.00;100.00
48968;BME280;46511;53.148;8.204;2024-02-21T00:15:32;101882.38;;;11.77;100.00
48968;BME280;46511;53.148;8.204;2024-02-21T00:18:03;101875.72;;;12.08;100.00
48968;BME280;46511;53.148;8.204;2024-02-21T00:20:35;101880.06;;;11.90;100.00
48968;BME280;46511;53.148;8.204;2024-02-21T00:23:06;101872.22;;;11.87;100.00
48968;BME280;46511;53.148;8.204;2024-02-21T00:25:37;101880.66;;;11.76;100.00
48968;BME280;46511;53.148;8.204;2024-02-21T00:28:09;101869.16;;;11.76;100.00
48968;BME280;46511;53.148;8.204;2024-02-21T00:30:40;101874.72;;;12.29;100.00
48968;BME280;46511;53.148;8.204;2024-02-21T00:33:11;101869.34;;;11.91;100.00
48968;BME280;46511;53.148;8.204;2024-02-21T00:35:43;101857.94;;;12.08;100.00
48968;BME280;46511;53.148;8.204;2024-02-21T00:38:15;101868.44;;;12.11;100.00
48968;BME280;46511;53.148;8.204;2024-02-21T00:40:46;101867.50;;;12.12;100.00
48968;BME280;46511;53.148;8.204;2024-02-21T00:43:18;101865.34;;;12.20;100.00
48968;BME280;46511;53.148;8.204;2024-02-21T00:45:49;101855.94;;;12.13;100.00
48968;BME280;46511;53.148;8.204;2024-02-21T00:48:21;101852.38;;;11.94;100.00
48968;BME280;46511;53.148;8.204;2024-02-21T00:50:52;101862.31;;;12.09;100.00
48968;BME280;46511;53.148;8.204;2024-02-21T00:53:24;101856.47;;;12.01;100.00
48968;BME280;46511;53.148;8.204;2024-02-21T00:55:55;101850.44;;;11.97;100.00
48968;BME280;46511;53.148;8.204;2024-02-21T00:58:27;101852.69;;;12.25;100.00
48968;BME280;46511;53.148;8.204;2024-02-21T01:01:00;101850.63;;;11.93;100.00
48968;BME280;46511;53.148;8.204;2024-02-21T01:03:31;101848.22;;;12.07;100.00
48968;BME280;46511;53.148;8.204;2024-02-21T01:06:04;101838.78;;;12.00;100.00
48968;BME280;46511;53.148;8.204;2024-02-21T01:08:35;101818.16;;;12.24;100.00
48968;BME280;46511;53.148;8.204;2024-02-21T01:11:06;101816.09;;;12.29;100.00
48968;BME280;46511;53.148;8.204;2024-02-21T01:13:38;101820.69;;;11.88;100.00
48968;BME280;46511;53.148;8.204;2024-02-21T01:16:09;101808.63;;;12.18;100.00
48968;BME280;46511;53.148;8.204;2024-02-21T01:18:40;101816.09;;;11.91;100.00
48968;BME280;46511;53.148;8.204;2024-02-21T01:21:13;101810.25;;;12.02;100.00
48968;BME280;46511;53.148;8.204;2024-02-21T01:23:44;101804.00;;;12.41;100.00
48968;BME280;46511;53.148;8.204;2024-02-21T01:26:15;101797.38;;;12.12;100.00
48968;BME280;46511;53.148;8.204;2024-02-21T01:28:47;101780.69;;;12.27;100.00
48968;BME280;46511;53.148;8.204;2024-02-21T01:31:18;101745.91;;;12.30;100.00
48968;BME280;46511;53.148;8.204;2024-02-21T01:33:50;101733.91;;;11.84;100.00
48968;BME280;46511;53.148;8.204;2024-02-21T01:36:17;101749.88;;;11.84;100.00
48968;BME280;46511;53.148;8.204;2024-02-21T01:38:49;101742.78;;;11.64;100.00
48968;BME280;46511;53.148;8.204;2024-02-21T01:41:20;101740.56;;;11.94;100.00
48968;BME280;46511;53.148;8.204;2024-02-21T01:43:52;101733.28;;;11.97;100.00
48968;BME280;46511;53.148;8.204;2024-02-21T01:46:18;101735.94;;;11.97;100.00
48968;BME280;46511;53.148;8.204;2024-02-21T01:48:49;101728.16;;;11.93;100.00
48968;BME280;46511;53.148;8.204;2024-02-21T01:51:21;101723.84;;;11.90;100.00
48968;BME280;46511;53.148;8.204;2024-02-21T01:53:47;101723.31;;;12.20;100.00
48968;BME280;46511;53.148;8.204;2024-02-21T01:56:16;101715.56;;;12.15;100.00
48968;BME280;46511;53.148;8.204;2024-02-21T01:58:43;101700.56;;;12.13;100.00
48968;BME280;46511;53.148;8.204;2024-02-21T02:01:13;101701.91;;;12.21;100.00
48968;BME280;46511;53.148;8.204;2024-02-21T02:03:42;101701.25;;;11.99;100.00
48968;BME280;46511;53.148;8.204;2024-02-21T02:06:13;101685.09;;;12.02;100.00
48968;BME280;46511;53.148;8.204;2024-02-21T02:08:45;101706.47;;;12.19;100.00
48968;BME280;46511;53.148;8.204;2024-02-21T02:11:16;101719.09;;;11.97;100.00
48968;BME280;46511;53.148;8.204;2024-02-21T02:13:48;101701.53;;;11.93;100.00
48968;BME280;46511;53.148;8.204;2024-02-21T02:16:19;101701.44;;;11.76;100.00
48968;BME280;46511;53.148;8.204;2024-02-21T02:18:51;101695.94;;;11.80;100.00
48968;BME280;46511;53.148;8.204;2024-02-21T02:21:23;101710.78;;;12.03;100.00
48968;BME280;46511;53.148;8.204;2024-02-21T02:23:59;101719.81;;;12.00;100.00
48968;BME280;46511;53.148;8.204;2024-02-21T02:26:31;101715.50;;;11.98;100.00
48968;BME280;46511;53.148;8.204;2024-02-21T02:29:02;101729.22;;;12.26;100.00
48968;BME280;46511;53.148;8.204;2024-02-21T02:31:34;101723.31;;;12.20;100.00
48968;BME280;46511;53.148;8.204;2024-02-21T02:34:06;101709.06;;;12.02;100.00
48968;BME280;46511;53.148;8.204;2024-02-21T02:36:37;101713.47;;;12.03;100.00
48968;BME280;46511;53.148;8.204;2024-02-21T02:39:08;101709.50;;;11.93;100.00
48968;BME280;46511;53.148;8.204;2024-02-21T02:41:38;101700.75;;;12.27;100.00
48968;BME280;46511;53.148;8.204;2024-02-21T02:44:09;101710.31;;;11.95;100.00
48968;BME280;46511;53.148;8.204;2024-02-21T02:46:35;101718.06;;;12.18;100.00
48968;BME280;46511;53.148;8.204;2024-02-21T02:49:02;101717.16;;;11.82;100.00
48968;BME280;46511;53.148;8.204;2024-02-21T02:51:33;101705.00;;;11.95;100.00
48968;BME280;46511;53.148;8.204;2024-02-21T02:54:05;101700.38;;;11.80;100.00
48968;BME280;46511;53.148;8.204;2024-02-21T02:56:31;101699.94;;;12.08;100.00
48968;BME280;46511;53.148;8.204;2024-02-21T02:59:02;101706.47;;;12.19;100.00
48968;BME280;46511;53.148;8.204;2024-02-21T03:01:34;101702.50;;;11.71;100.00
48968;BME280;46511;53.148;8.204;2024-02-21T03:04:06;101697.78;;;11.78;100.00
48968;BME280;46511;53.148;8.204;2024-02-21T03:06:32;101697.91;;;11.37;100.00
48968;BME280;46511;53.148;8.204;2024-02-21T03:09:04;101698.03;;;11.53;100.00
48968;BME280;46511;53.148;8.204;2024-02-21T03:11:39;101702.81;;;11.47;100.00
48968;BME280;46511;53.148;8.204;2024-02-21T03:14:11;101698.69;;;11.58;100.00
48968;BME280;46511;53.148;8.204;2024-02-21T03:16:43;101712.47;;;11.08;100.00
48968;BME280;46511;53.148;8.204;2024-02-21T03:19:14;101713.13;;;11.34;100.00
48968;BME280;46511;53.148;8.204;2024-02-21T03:21:45;101707.94;;;11.31;100.00
48968;BME280;46511;53.148;8.204;2024-02-21T03:24:18;101698.72;;;11.19;100.00
48968;BME280;46511;53.148;8.204;2024-02-21T03:26:49;101700.78;;;11.12;100.00
48968;BME280;46511;53.148;8.204;2024-02-21T03:29:21;101701.56;;;11.14;100.00
48968;BME280;46511;53.148;8.204;2024-02-21T03:31:53;101703.19;;;11.19;100.00
48968;BME280;46511;53.148;8.204;2024-02-21T03:34:24;101701.13;;;11.05;100.00
48968;BME280;46511;53.148;8.204;2024-02-21T03:36:50;101710.44;;;10.95;100.00
48968;BME280;46511;53.148;8.204;2024-02-21T03:39:22;101691.97;;;10.71;100.00
48968;BME280;46511;53.148;8.204;2024-02-21T03:41:54;101703.69;;;11.27;100.00
48968;BME280;46511;53.148;8.204;2024-02-21T03:44:26;101711.50;;;10.91;100.00
48968;BME280;46511;53.148;8.204;2024-02-21T03:46:58;101701.50;;;10.96;100.00
48968;BME280;46511;53.148;8.204;2024-02-21T03:49:31;101702.53;;;10.93;100.00
48968;BME280;46511;53.148;8.204;2024-02-21T03:52:02;101703.44;;;10.72;100.00
48968;BME280;46511;53.148;8.204;2024-02-21T03:54:29;101690.25;;;10.91;100.00
48968;BME280;46511;53.148;8.204;2024-02-21T03:57:00;101693.63;;;10.94;100.00
48968;BME280;46511;53.148;8.204;2024-02-21T03:59:26;101690.94;;;11.14;100.00
48968;BME280;46511;53.148;8.204;2024-02-21T04:01:53;101700.03;;;10.88;100.00
48968;BME280;46511;53.148;8.204;2024-02-21T04:04:20;101690.56;;;10.83;100.00
48968;BME280;46511;53.148;8.204;2024-02-21T04:06:51;101703.06;;;10.81;100.00
48968;BME280;46511;53.148;8.204;2024-02-21T04:09:18;101697.59;;;11.04;100.00
48968;BME280;46511;53.148;8.204;2024-02-21T04:11:49;101703.31;;;10.95;100.00
48968;BME280;46511;53.148;8.204;2024-02-21T04:14:21;101698.94;;;10.94;100.00
48968;BME280;46511;53.148;8.204;2024-02-21T04:16:47;101709.09;;;11.05;100.00
48968;BME280;46511;53.148;8.204;2024-02-21T04:19:13;101701.03;;;11.06;100.00
48968;BME280;46511;53.148;8.204;2024-02-21T04:21:40;101706.56;;;11.02;100.00
48968;BME280;46511;53.148;8.204;2024-02-21T04:24:11;101702.38;;;10.96;100.00
48968;BME280;46511;53.148;8.204;2024-02-21T04:26:37;101704.19;;;10.96;100.00
48968;BME280;46511;53.148;8.204;2024-02-21T04:29:04;101687.63;;;10.89;100.00
48968;BME280;46511;53.148;8.204;2024-02-21T04:31:31;101678.44;;;10.96;100.00
48968;BME280;46511;53.148;8.204;2024-02-21T04:33:58;101686.25;;;11.40;100.00
48968;BME280;46511;53.148;8.204;2024-02-21T04:36:24;101683.75;;;10.96;100.00
48968;BME280;46511;53.148;8.204;2024-02-21T04:38:51;101682.31;;;10.69;100.00
48968;BME280;46511;53.148;8.204;2024-02-21T04:41:17;101681.78;;;11.01;100.00
48968;BME280;46511;53.148;8.204;2024-02-21T04:43:49;101684.84;;;10.92;100.00
48968;BME280;46511;53.148;8.204;2024-02-21T04:46:15;101686.31;;;10.99;100.00
48968;BME280;46511;53.148;8.204;2024-02-21T04:48:42;101686.69;;;11.10;100.00
48968;BME280;46511;53.148;8.204;2024-02-21T04:51:14;101687.78;;;11.25;100.00
48968;BME280;46511;53.148;8.204;2024-02-21T04:53:40;101690.53;;;11.24;100.00
48968;BME280;46511;53.148;8.204;2024-02-21T04:56:07;101686.31;;;10.99;100.00
48968;BME280;46511;53.148;8.204;2024-02-21T04:58:33;101691.50;;;11.02;100.00
48968;BME280;46511;53.148;8.204;2024-02-21T05:01:08;101683.47;;;11.23;100.00
48968;BME280;46511;53.148;8.204;2024-02-21T05:03:40;101685.63;;;11.14;100.00
48968;BME280;46511;53.148;8.204;2024-02-21T05:06:06;101685.75;;;11.11;100.00
48968;BME280;46511;53.148;8.204;2024-02-21T05:08:34;101680.16;;;11.18;100.00
48968;BME280;46511;53.148;8.204;2024-02-21T05:11:00;101680.19;;;11.36;100.00
48968;BME280;46511;53.148;8.204;2024-02-21T05:13:27;101673.28;;;10.93;100.00
48968;BME280;46511;53.148;8.204;2024-02-21T05:15:53;101682.44;;;11.06;100.00
48968;BME280;46511;53.148;8.204;2024-02-21T05:18:24;101666.44;;;11.27;100.00
48968;BME280;46511;53.148;8.204;2024-02-21T05:20:56;101670.84;;;11.28;100.00
48968;BME280;46511;53.148;8.204;2024-02-21T05:23:27;101662.16;;;11.62;100.00
48968;BME280;46511;53.148;8.204;2024-02-21T05:25:58;101664.66;;;11.46;100.00
48968;BME280;46511;53.148;8.204;2024-02-21T05:28:25;101660.22;;;11.47;100.00
48968;BME280;46511;53.148;8.204;2024-02-21T05:30:51;101651.00;;;11.35;100.00
48968;BME280;46511;53.148;8.204;2024-02-21T05:33:22;101656.16;;;11.19;100.00
48968;BME280;46511;53.148;8.204;2024-02-21T05:35:54;101646.47;;;11.56;100.00
48968;BME280;46511;53.148;8.204;2024-02-21T05:38:25;101650.72;;;11.41;100.00
48968;BME280;46511;53.148;8.204;2024-02-21T05:40:57;101639.28;;;11.39;100.00
48968;BME280;46511;53.148;8.204;2024-02-21T05:43:29;101634.25;;;11.70;100.00
48968;BME280;46511;53.148;8.204;2024-02-21T05:46:00;101640.06;;;11.79;100.00
48968;BME280;46511;53.148;8.204;2024-02-21T05:48:26;101646.09;;;11.63;100.00
48968;BME280;46511;53.148;8.204;2024-02-21T05:50:58;101635.97;;;11.53;100.00
48968;BME280;46511;53.148;8.204;2024-02-21T05:53:27;101634.47;;;11.66;100.00
48968;BME280;46511;53.148;8.204;2024-02-21T05:55:58;101624.53;;;11.51;100.00
48968;BME280;46511;53.148;8.204;2024-02-21T05:58:30;101628.25;;;11.65;100.00
48968;BME280;46511;53.148;8.204;2024-02-21T06:01:02;101627.81;;;11.74;100.00
48968;BME280;46511;53.148;8.204;2024-02-21T06:03:34;101633.47;;;11.68;100.00
48968;BME280;46511;53.148;8.204;2024-02-21T06:06:02;101618.94;;;11.76;100.00
48968;BME280;46511;53.148;8.204;2024-02-21T06:08:30;101632.59;;;11.87;100.00
48968;BME280;46511;53.148;8.204;2024-02-21T06:11:02;101619.50;;;11.82;100.00
48968;BME280;46511;53.148;8.204;2024-02-21T06:13:29;101623.47;;;11.55;100.00
48968;BME280;46511;53.148;8.204;2024-02-21T06:16:00;101620.66;;;11.58;100.00
48968;BME280;46511;53.148;8.204;2024-02-21T06:18:31;101621.81;;;11.52;100.00
48968;BME280;46511;53.148;8.204;2024-02-21T06:20:57;101630.28;;;11.60;100.00
48968;BME280;46511;53.148;8.204;2024-02-21T06:23:24;101633.13;;;11.57;100.00
48968;BME280;46511;53.148;8.204;2024-02-21T06:25:50;101625.56;;;11.86;100.00
48968;BME280;46511;53.148;8.204;2024-02-21T06:28:17;101623.31;;;11.77;100.00
48968;BME280;46511;53.148;8.204;2024-02-21T06:30:43;101631.19;;;11.80;100.00
48968;BME280;46511;53.148;8.204;2024-02-21T06:33:14;101633.41;;;11.51;100.00
48968;BME280;46511;53.148;8.204;2024-02-21T06:35:41;101645.56;;;11.57;100.00
48968;BME280;46511;53.148;8.204;2024-02-21T06:38:08;101625.97;;;11.77;100.00
48968;BME280;46511;53.148;8.204;2024-02-21T06:40:35;101623.09;;;11.81;100.00
48968;BME280;46511;53.148;8.204;2024-02-21T06:43:10;101622.47;;;11.57;100.00
48968;BME280;46511;53.148;8.204;2024-02-21T06:45:41;101613.72;;;11.72;100.00
48968;BME280;46511;53.148;8.204;2024-02-21T06:48:08;101618.00;;;11.77;100.00
48968;BME280;46511;53.148;8.204;2024-02-21T06:50:35;101616.94;;;11.81;100.00
48968;BME280;46511;53.148;8.204;2024-02-21T06:53:06;101609.63;;;11.65;100.00
48968;BME280;46511;53.148;8.204;2024-02-21T06:55:32;101607.25;;;11.97;100.00
48968;BME280;46511;53.148;8.204;2024-02-21T06:57:59;101611.59;;;11.81;100.00
48968;BME280;46511;53.148;8.204;2024-02-21T07:00:25;101609.75;;;12.00;100.00
48968;BME280;46511;53.148;8.204;2024-02-21T07:02:52;101616.75;;;11.84;100.00
48968;BME280;46511;53.148;8.204;2024-02-21T07:05:18;101619.28;;;11.87;100.00
48968;BME280;46511;53.148;8.204;2024-02-21T07:07:45;101618.19;;;11.91;100.00
48968;BME280;46511;53.148;8.204;2024-02-21T07:10:16;101621.63;;;11.93;100.00
48968;BME280;46511;53.148;8.204;2024-02-21T07:12:48;101622.59;;;11.92;100.00
48968;BME280;46511;53.148;8.204;2024-02-21T07:15:16;101622.16;;;11.63;100.00
48968;BME280;46511;53.148;8.204;2024-02-21T07:17:43;101619.19;;;12.07;100.00
48968;BME280;46511;53.148;8.204;2024-02-21T07:20:14;101613.06;;;12.05;100.00
48968;BME280;46511;53.148;8.204;2024-02-21T07:22:45;101615.44;;;12.28;100.00
48968;BME280;46511;53.148;8.204;2024-02-21T07:25:17;101613.28;;;12.00;100.00
48968;BME280;46511;53.148;8.204;2024-02-21T07:27:48;101620.25;;;12.03;100.00
48968;BME280;46511;53.148;8.204;2024-02-21T07:30:15;101617.59;;;12.03;100.00
48968;BME280;46511;53.148;8.204;2024-02-21T07:32:48;101620.16;;;11.87;100.00
48968;BME280;46511;53.148;8.204;2024-02-21T07:35:17;101632.97;;;12.15;100.00
48968;BME280;46511;53.148;8.204;2024-02-21T07:37:43;101629.94;;;11.87;100.00
48968;BME280;46511;53.148;8.204;2024-02-21T07:40:15;101619.50;;;11.44;100.00
48968;BME280;46511;53.148;8.204;2024-02-21T07:42:43;101617.63;;;11.65;100.00
48968;BME280;46511;53.148;8.204;2024-02-21T07:45:10;101629.28;;;11.44;100.00
48968;BME280;46511;53.148;8.204;2024-02-21T07:47:36;101628.00;;;11.53;100.00
48968;BME280;46511;53.148;8.204;2024-02-21T07:50:03;101615.47;;;11.55;100.00
48968;BME280;46511;53.148;8.204;2024-02-21T07:52:31;101619.38;;;11.66;100.00
48968;BME280;46511;53.148;8.204;2024-02-21T07:54:57;101622.81;;;11.68;100.00
48968;BME280;46511;53.148;8.204;2024-02-21T07:57:24;101619.91;;;11.73;100.00
48968;BME280;46511;53.148;8.204;2024-02-21T07:59:55;101612.31;;;11.84;100.00
48968;BME280;46511;53.148;8.204;2024-02-21T08:02:22;101619.38;;;11.66;100.00
48968;BME280;46511;53.148;8.204;2024-02-21T08:04:48;101610.31;;;11.52;100.00
48968;BME280;46511;53.148;8.204;2024-02-21T08:07:14;101610.13;;;11.73;100.00
48968;BME280;46511;53.148;8.204;2024-02-21T08:09:41;101595.41;;;11.85;100.00
48968;BME280;46511;53.148;8.204;2024-02-21T08:12:07;101593.91;;;11.42;100.00
48968;BME280;46511;53.148;8.204;2024-02-21T08:14:39;101595.75;;;11.78;100.00
48968;BME280;46511;53.148;8.204;2024-02-21T08:17:10;101597.25;;;11.64;100.00
48968;BME280;46511;53.148;8.204;2024-02-21T08:19:42;101591.56;;;11.91;100.00
48968;BME280;46511;53.148;8.204;2024-02-21T08:22:08;101595.00;;;11.93;100.00
48968;BME280;46511;53.148;8.204;2024-02-21T08:24:35;101602.88;;;11.77;100.00
48968;BME280;46511;53.148;8.204;2024-02-21T08:27:01;101590.91;;;12.05;100.00
48968;BME280;46511;53.148;8.204;2024-02-21T08:29:32;101586.03;;;11.77;100.00
48968;BME280;46511;53.148;8.204;2024-02-21T08:31:59;101585.56;;;12.22;100.00
48968;BME280;46511;53.148;8.204;2024-02-21T08:34:25;101576.97;;;12.17;100.00
48968;BME280;46511;53.148;8.204;2024-02-21T08:36:52;101577.19;;;11.95;100.00
48968;BME280;46511;53.148;8.204;2024-02-21T08:39:18;101571.16;;;11.72;100.00
48968;BME280;46511;53.148;8.204;2024-02-21T08:41:45;101572.41;;;12.01;100.00
48968;BME280;46511;53.148;8.204;2024-02-21T08:44:16;101565.88;;;11.90;100.00
48968;BME280;46511;53.148;8.204;2024-02-21T08:46:47;101561.44;;;11.71;100.00
48968;BME280;46511;53.148;8.204;2024-02-21T08:49:14;101554.28;;;11.91;100.00
48968;BME280;46511;53.148;8.204;2024-02-21T08:51:40;101556.19;;;11.89;100.00
48968;BME280;46511;53.148;8.204;2024-02-21T08:54:11;101556.34;;;12.03;100.00
48968;BME280;46511;53.148;8.204;2024-02-21T08:56:38;101559.50;;;11.94;100.00
48968;BME280;46511;53.148;8.204;2024-02-21T08:59:04;101551.94;;;11.30;100.00
48968;BME280;46511;53.148;8.204;2024-02-21T09:01:35;101554.94;;;11.41;100.00
48968;BME280;46511;53.148;8.204;2024-02-21T09:04:07;101561.72;;;11.48;100.00
48968;BME280;46511;53.148;8.204;2024-02-21T09:06:39;101551.16;;;11.83;100.00
48968;BME280;46511;53.148;8.204;2024-02-21T09:09:13;101567.47;;;11.39;100.00
48968;BME280;46511;53.148;8.204;2024-02-21T09:11:39;101562.59;;;11.30;100.00
48968;BME280;46511;53.148;8.204;2024-02-21T09:14:06;101545.22;;;11.59;100.00
48968;BME280;46511;53.148;8.204;2024-02-21T09:16:33;101545.16;;;11.41;100.00
48968;BME280;46511;53.148;8.204;2024-02-21T09:19:04;101543.44;;;11.40;100.00
48968;BME280;46511;53.148;8.204;2024-02-21T09:21:31;101543.09;;;11.65;100.00
48968;BME280;46511;53.148;8.204;2024-02-21T09:23:57;101553.19;;;11.59;100.00
48968;BME280;46511;53.148;8.204;2024-02-21T09:26:28;101550.66;;;11.38;100.00
48968;BME280;46511;53.148;8.204;2024-02-21T09:29:00;101549.72;;;11.76;100.00
48968;BME280;46511;53.148;8.204;2024-02-21T09:31:31;101542.00;;;11.14;100.00
48968;BME280;46511;53.148;8.204;2024-02-21T09:34:02;101542.56;;;11.59;100.00
48968;BME280;46511;53.148;8.204;2024-02-21T09:36:34;101538.09;;;11.59;100.00
48968;BME280;46511;53.148;8.204;2024-02-21T09:39:00;101538.91;;;11.79;100.00
48968;BME280;46511;53.148;8.204;2024-02-21T09:41:32;101542.97;;;11.68;100.00
48968;BME280;46511;53.148;8.204;2024-02-21T09:44:07;101533.09;;;11.70;100.00
48968;BME280;46511;53.148;8.204;2024-02-21T09:52:04;101523.41;;;11.69;100.00
48968;BME280;46511;53.148;8.204;2024-02-21T09:54:37;101508.44;;;11.67;100.00
48968;BME280;46511;53.148;8.204;2024-02-21T09:57:10;101499.59;;;11.30;100.00
48968;BME280;46511;53.148;8.204;2024-02-21T09:59:42;101495.84;;;11.70;100.00
48968;BME280;46511;53.148;8.204;2024-02-21T10:02:14;101502.28;;;11.66;100.00
48968;BME280;46511;53.148;8.204;2024-02-21T10:04:46;101499.13;;;11.94;100.00
48968;BME280;46511;53.148;8.204;2024-02-21T10:07:17;101488.56;;;11.21;100.00
48968;BME280;46511;53.148;8.204;2024-02-21T10:10:00;101482.88;;;11.99;100.00
48968;BME280;46511;53.148;8.204;2024-02-21T10:12:33;101486.34;;;11.48;100.00
48968;BME280;46511;53.148;8.204;2024-02-21T10:15:05;101482.81;;;11.64;100.00
48968;BME280;46511;53.148;8.204;2024-02-21T10:17:37;101479.75;;;11.91;100.00
48968;BME280;46511;53.148;8.204;2024-02-21T10:20:09;101474.25;;;11.77;100.00
48968;BME280;46511;53.148;8.204;2024-02-21T10:22:41;101469.25;;;11.88;100.00
48968;BME280;46511;53.148;8.204;2024-02-21T10:25:12;101464.66;;;11.55;100.00
48968;BME280;46511;53.148;8.204;2024-02-21T10:27:44;101467.47;;;11.52;100.00
48968;BME280;46511;53.148;8.204;2024-02-21T10:30:15;101469.97;;;11.91;100.00
48968;BME280;46511;53.148;8.204;2024-02-21T10:32:50;101475.94;;;11.96;100.00
48968;BME280;46511;53.148;8.204;2024-02-21T10:35:29;101464.88;;;12.04;100.00
48968;BME280;46511;53.148;8.204;2024-02-21T10:38:04;101453.50;;;11.66;100.00
48968;BME280;46511;53.148;8.204;2024-02-21T10:40:35;101449.00;;;11.32;100.00
48968;BME280;46511;53.148;8.204;2024-02-21T10:43:07;101456.34;;;11.80;100.00
48968;BME280;46511;53.148;8.204;2024-02-21T10:45:43;101446.81;;;12.26;100.00
48968;BME280;46511;53.148;8.204;2024-02-21T10:48:15;101436.06;;;12.28;100.00
48968;BME280;46511;53.148;8.204;2024-02-21T10:58:57;101423.47;;;13.28;100.00
48968;BME280;46511;53.148;8.204;2024-02-21T11:01:29;101414.28;;;13.16;100.00
48968;BME280;46511;53.148;8.204;2024-02-21T11:04:04;101406.22;;;14.22;100.00
48968;BME280;46511;53.148;8.204;2024-02-21T11:06:38;101394.50;;;13.66;100.00
48968;BME280;46511;53.148;8.204;2024-02-21T11:09:11;101393.97;;;14.75;100.00
48968;BME280;46511;53.148;8.204;2024-02-21T11:11:45;101382.47;;;15.41;100.00
48968;BME280;46511;53.148;8.204;2024-02-21T11:14:20;101371.38;;;14.93;100.00
48968;BME280;46511;53.148;8.204;2024-02-21T11:16:47;101362.03;;;14.45;100.00
48968;BME280;46511;53.148;8.204;2024-02-21T11:19:26;101358.06;;;14.79;100.00
48968;BME280;46511;53.148;8.204;2024-02-21T11:22:02;101359.06;;;14.91;100.00
48968;BME280;46511;53.148;8.204;2024-02-21T11:24:45;101348.91;;;15.23;100.00
48968;BME280;46511;53.148;8.204;2024-02-21T11:29:56;101340.94;;;14.12;100.00
48968;BME280;46511;53.148;8.204;2024-02-21T11:32:28;101332.56;;;14.04;100.00
48968;BME280;46511;53.148;8.204;2024-02-21T11:35:01;101334.16;;;13.92;100.00
48968;BME280;46511;53.148;8.204;2024-02-21T11:37:32;101329.03;;;14.03;100.00
48968;BME280;46511;53.148;8.204;2024-02-21T11:40:00;101335.59;;;14.12;100.00
48968;BME280;46511;53.148;8.204;2024-02-21T11:42:31;101329.38;;;14.25;100.00
48968;BME280;46511;53.148;8.204;2024-02-21T11:45:03;101319.56;;;13.83;100.00
48968;BME280;46511;53.148;8.204;2024-02-21T11:47:34;101311.91;;;13.63;100.00
48968;BME280;46511;53.148;8.204;2024-02-21T11:50:04;101310.97;;;13.64;100.00
48968;BME280;46511;53.148;8.204;2024-02-21T11:52:36;101327.28;;;12.99;100.00
48968;BME280;46511;53.148;8.204;2024-02-21T11:55:07;101293.53;;;13.58;100.00
48968;BME280;46511;53.148;8.204;2024-02-21T11:57:42;101290.59;;;14.61;100.00
48968;BME280;46511;53.148;8.204;2024-02-21T12:00:17;101286.78;;;14.78;100.00
48968;BME280;46511;53.148;8.204;2024-02-21T12:02:53;101286.34;;;14.16;100.00
48968;BME280;46511;53.148;8.204;2024-02-21T12:05:26;101278.06;;;13.49;100.00
48968;BME280;46511;53.148;8.204;2024-02-21T12:08:00;101273.41;;;13.95;100.00
48968;BME280;46511;53.148;8.204;2024-02-21T12:10:31;101275.47;;;14.33;100.00
48968;BME280;46511;53.148;8.204;2024-02-21T12:13:10;101267.28;;;14.63;100.00
48968;BME280;46511;53.148;8.204;2024-02-21T12:15:42;101268.34;;;14.61;100.00
48968;BME280;46511;53.148;8.204;2024-02-21T12:18:19;101257.59;;;13.78;100.00
48968;BME280;46511;53.148;8.204;2024-02-21T12:20:51;101252.09;;;14.22;100.00
48968;BME280;46511;53.148;8.204;2024-02-21T12:23:26;101240.97;;;13.87;100.00
48968;BME280;46511;53.148;8.204;2024-02-21T12:25:59;101239.75;;;13.93;100.00
48968;BME280;46511;53.148;8.204;2024-02-21T12:28:30;101230.59;;;13.54;100.00
48968;BME280;46511;53.148;8.204;2024-02-21T12:31:02;101231.09;;;13.75;100.00
48968;BME280;46511;53.148;8.204;2024-02-21T12:33:35;101224.78;;;13.62;100.00
48968;BME280;46511;53.148;8.204;2024-02-21T12:36:06;101225.25;;;13.40;100.00
48968;BME280;46511;53.148;8.204;2024-02-21T12:38:35;101216.94;;;13.44;100.00
48968;BME280;46511;53.148;8.204;2024-02-21T12:41:07;101210.47;;;13.34;100.00
48968;BME280;46511;53.148;8.204;2024-02-21T12:43:33;101196.75;;;13.55;100.00
48968;BME280;46511;53.148;8.204;2024-02-21T12:46:05;101190.66;;;13.53;100.00
48968;BME280;46511;53.148;8.204;2024-02-21T12:48:38;101195.81;;;13.41;100.00
48968;BME280;46511;53.148;8.204;2024-02-21T12:51:10;101187.03;;;13.68;100.00
48968;BME280;46511;53.148;8.204;2024-02-21T12:53:42;101184.16;;;13.42;100.00
48968;BME280;46511;53.148;8.204;2024-02-21T12:56:13;101173.31;;;13.46;100.00
48968;BME280;46511;53.148;8.204;2024-02-21T12:58:45;101163.38;;;13.76;100.00
48968;BME280;46511;53.148;8.204;2024-02-21T13:01:16;101151.31;;;13.83;100.00
48968;BME280;46511;53.148;8.204;2024-02-21T13:03:47;101149.28;;;13.17;100.00
48968;BME280;46511;53.148;8.204;2024-02-21T13:06:19;101143.56;;;13.23;100.00
48968;BME280;46511;53.148;8.204;2024-02-21T13:08:50;101137.78;;;12.86;100.00
48968;BME280;46511;53.148;8.204;2024-02-21T13:11:22;101123.38;;;13.33;100.00